Time;durP1;ratioP1;P1;durP2;ratioP2;P2;SDS_P1;SDS_P2;PMS_P1;PMS_P2;Temp;Humidity;BMP_temperature;BMP_pressure;BME280_temperature;BME280_humidity;BME280_pressure;Samples;Min_cycle;Max_cycle;Signal;HPM_P1;HPM_P2
2022/06/19 00:00:53;;;;;;;0.25;0.20;;;14.90;99.90;;;;;;5125875;28;20055;-81
2022/06/19 00:03:35;;;;;;;0.10;0.10;;;14.90;99.90;;;;;;5126481;28;20044;-81
2022/06/19 00:06:02;;;;;;;0.00;0.00;;;15.00;99.90;;;;;;5126469;28;20055;-81
2022/06/19 00:08:30;;;;;;;0.10;0.10;;;14.90;99.90;;;;;;5126301;28;20075;-81
2022/06/19 00:10:58;;;;;;;0.00;0.00;;;14.90;99.90;;;;;;5126073;28;20040;-81
2022/06/19 00:13:25;;;;;;;0.03;0.03;;;15.00;99.90;;;;;;5142838;28;20040;-81
2022/06/19 00:15:53;;;;;;;0.00;0.00;;;15.00;99.90;;;;;;5142843;28;20047;-81
2022/06/19 00:18:20;;;;;;;0.10;0.10;;;14.90;99.90;;;;;;5142793;28;20043;-81
2022/06/19 00:20:46;;;;;;;0.05;0.05;;;14.90;99.90;;;;;;5125979;28;20032;-81
2022/06/19 00:23:13;;;;;;;0.10;0.10;;;14.90;99.90;;;;;;5126389;28;20036;-81
2022/06/19 00:25:40;;;;;;;0.32;0.20;;;14.80;99.90;;;;;;5109086;28;20508;-81
2022/06/19 00:28:07;;;;;;;0.85;0.85;;;14.80;99.90;;;;;;5109090;28;20036;-81
2022/06/19 00:30:34;;;;;;;0.90;0.30;;;14.80;99.90;;;;;;5108943;28;20040;-80
2022/06/19 00:33:02;;;;;;;0.10;0.10;;;14.80;99.90;;;;;;5143003;28;20028;-81
2022/06/19 00:35:29;;;;;;;0.20;0.10;;;14.80;99.90;;;;;;5109344;28;20056;-81
2022/06/19 00:37:57;;;;;;;0.00;0.00;;;14.80;99.90;;;;;;5109359;28;20605;-81
2022/06/19 00:40:27;;;;;;;0.00;0.00;;;14.70;99.90;;;;;;5126126;28;20443;-81
2022/06/19 00:42:54;;;;;;;0.00;0.00;;;14.70;99.90;;;;;;5126080;28;20044;-80
2022/06/19 00:45:34;;;;;;;0.10;0.10;;;14.70;99.90;;;;;;5109115;28;20048;-81
2022/06/19 00:48:08;;;;;;;0.10;0.10;;;14.70;99.90;;;;;;5109445;28;20044;-81
2022/06/19 00:50:36;;;;;;;0.28;0.20;;;14.70;99.90;;;;;;5126035;28;20508;-81
2022/06/19 00:53:07;;;;;;;0.08;0.08;;;14.70;99.90;;;;;;5125596;28;20036;-81
2022/06/19 00:55:39;;;;;;;0.00;0.00;;;14.70;99.90;;;;;;5126024;28;20101;-81
2022/06/19 00:58:24;;;;;;;0.00;0.00;;;14.60;99.90;;;;;;5128548;28;20075;-81
2022/06/19 01:00:56;;;;;;;0.00;0.00;;;14.60;99.90;;;;;;5112316;28;20032;-81
2022/06/19 01:03:42;;;;;;;0.15;0.10;;;14.70;99.90;;;;;;5146456;28;20066;-81
2022/06/19 01:06:10;;;;;;;0.10;0.10;;;14.70;99.90;;;;;;5129085;28;20071;-81
2022/06/19 01:08:36;;;;;;;1.52;0.43;;;14.60;99.90;;;;;;5129145;28;20040;-80
2022/06/19 01:11:04;;;;;;;0.00;0.00;;;14.70;99.90;;;;;;5129166;28;20382;-81
2022/06/19 01:13:32;;;;;;;0.10;0.10;;;14.60;99.90;;;;;;5128971;28;20040;-81
2022/06/19 01:16:01;;;;;;;0.28;0.13;;;14.70;99.90;;;;;;5128905;28;20044;-81
2022/06/19 01:18:29;;;;;;;0.00;0.00;;;14.70;99.90;;;;;;5146313;28;20085;-81
2022/06/19 01:21:00;;;;;;;0.00;0.00;;;14.70;99.90;;;;;;5128792;28;20067;-81
2022/06/19 01:23:32;;;;;;;0.00;0.00;;;14.70;99.90;;;;;;5112406;28;20044;-81
2022/06/19 01:25:58;;;;;;;0.57;0.32;;;14.70;99.90;;;;;;5111898;28;20101;-81
2022/06/19 01:28:54;;;;;;;0.35;0.25;;;14.70;99.90;;;;;;5111545;28;20493;-81
2022/06/19 01:31:27;;;;;;;1.75;0.77;;;14.70;99.90;;;;;;5112329;28;20047;-81
2022/06/19 01:34:02;;;;;;;0.17;0.10;;;14.70;99.90;;;;;;5145201;28;20052;-81
2022/06/19 01:36:32;;;;;;;1.35;0.32;;;14.70;99.90;;;;;;5145550;28;20044;-81
2022/06/19 01:39:00;;;;;;;0.00;0.00;;;14.70;99.90;;;;;;5145849;28;20044;-81
2022/06/19 01:41:31;;;;;;;0.45;0.28;;;14.70;99.90;;;;;;5145825;28;20036;-81
2022/06/19 01:43:58;;;;;;;0.00;0.00;;;14.70;99.90;;;;;;5111382;28;20048;-81
2022/06/19 01:46:27;;;;;;;0.10;0.00;;;14.70;99.90;;;;;;5111505;28;20069;-81
2022/06/19 01:48:55;;;;;;;0.22;0.10;;;14.70;99.90;;;;;;5128298;28;20565;-81
2022/06/19 01:51:22;;;;;;;0.00;0.00;;;14.70;99.90;;;;;;5128004;28;20572;-81
2022/06/19 01:53:56;;;;;;;0.10;0.10;;;14.70;99.90;;;;;;5127767;28;20051;-81
2022/06/19 01:56:23;;;;;;;0.08;0.08;;;14.70;99.90;;;;;;5128262;28;20036;-81
2022/06/19 01:58:53;;;;;;;0.30;0.30;;;14.70;99.90;;;;;;5128243;28;20077;-81
2022/06/19 02:01:19;;;;;;;0.03;0.03;;;14.60;99.90;;;;;;5111420;28;20050;-81
2022/06/19 02:03:54;;;;;;;0.10;0.10;;;14.60;99.90;;;;;;5127426;28;20040;-81
2022/06/19 02:06:26;;;;;;;0.63;0.35;;;14.60;99.90;;;;;;5111735;28;20047;-81
2022/06/19 02:08:53;;;;;;;0.20;0.20;;;14.60;99.90;;;;;;5110912;28;20407;-81
2022/06/19 02:11:22;;;;;;;0.00;0.00;;;14.60;99.90;;;;;;5128373;28;20090;-81
2022/06/19 02:13:49;;;;;;;0.00;0.00;;;14.50;99.90;;;;;;5127470;28;20040;-81
2022/06/19 02:16:20;;;;;;;0.00;0.00;;;14.50;99.90;;;;;;5127789;28;20032;-81
2022/06/19 02:18:50;;;;;;;0.00;0.00;;;14.50;99.90;;;;;;5110814;28;20550;-81
2022/06/19 02:21:32;;;;;;;0.00;0.00;;;14.50;99.90;;;;;;5111067;28;20157;-81
2022/06/19 02:23:59;;;;;;;0.00;0.00;;;14.50;99.90;;;;;;5110918;28;20036;-81
2022/06/19 02:26:26;;;;;;;0.10;0.10;;;14.50;99.90;;;;;;5111119;28;20065;-81
2022/06/19 02:28:53;;;;;;;0.10;0.10;;;14.50;99.90;;;;;;5110377;28;20048;-81
2022/06/19 02:31:23;;;;;;;0.20;0.20;;;14.50;99.90;;;;;;5145040;28;20089;-81
2022/06/19 02:33:58;;;;;;;0.00;0.00;;;14.50;99.90;;;;;;5110697;28;20063;-81
2022/06/19 02:36:34;;;;;;;0.08;0.08;;;14.50;99.90;;;;;;5127897;28;20179;-81
2022/06/19 02:39:24;;;;;;;0.00;0.00;;;14.50;99.90;;;;;;5126992;28;20397;-81
2022/06/19 02:42:01;;;;;;;0.00;0.00;;;14.50;99.90;;;;;;5110090;28;20127;-81
2022/06/19 02:44:37;;;;;;;0.10;0.10;;;14.50;99.90;;;;;;5110860;28;20082;-80
2022/06/19 02:47:04;;;;;;;0.10;0.10;;;14.50;99.90;;;;;;5110562;28;20044;-81
2022/06/19 02:49:31;;;;;;;0.00;0.00;;;14.50;99.90;;;;;;5110482;28;20039;-81
2022/06/19 02:51:58;;;;;;;0.08;0.08;;;14.50;99.90;;;;;;5127212;28;20402;-80
2022/06/19 02:54:24;;;;;;;0.40;0.10;;;14.50;99.90;;;;;;5144158;28;20429;-80
2022/06/19 02:56:51;;;;;;;0.10;0.10;;;14.50;99.90;;;;;;5143669;28;20071;-82
2022/06/19 02:59:18;;;;;;;0.00;0.00;;;14.50;99.90;;;;;;5126859;28;20119;-81
2022/06/19 03:01:45;;;;;;;0.10;0.10;;;14.50;99.90;;;;;;5127421;28;20036;-82
2022/06/19 03:04:19;;;;;;;0.63;0.22;;;14.50;99.90;;;;;;5126812;28;20411;-81
2022/06/19 03:06:46;;;;;;;0.10;0.10;;;14.50;99.90;;;;;;5109963;28;20036;-81
2022/06/19 03:09:13;;;;;;;0.10;0.10;;;14.60;99.90;;;;;;5126515;28;20039;-81
2022/06/19 03:11:39;;;;;;;0.00;0.00;;;14.60;99.90;;;;;;5143995;28;20130;-81
2022/06/19 03:14:06;;;;;;;0.30;0.10;;;14.50;99.90;;;;;;5126632;28;20151;-81
2022/06/19 03:16:33;;;;;;;0.00;0.00;;;14.60;99.90;;;;;;5126322;28;20787;-80
2022/06/19 03:18:59;;;;;;;0.68;0.20;;;14.50;99.90;;;;;;5126090;28;20040;-81
2022/06/19 03:21:27;;;;;;;0.00;0.00;;;14.50;99.90;;;;;;5126064;28;20090;-81
2022/06/19 03:23:53;;;;;;;0.08;0.08;;;14.50;99.90;;;;;;5143164;28;20396;-80
2022/06/19 03:26:20;;;;;;;0.13;0.13;;;14.50;99.90;;;;;;5126191;28;20044;-80
2022/06/19 03:28:47;;;;;;;0.17;0.17;;;14.50;99.90;;;;;;5143217;28;20123;-81
2022/06/19 03:31:18;;;;;;;0.10;0.10;;;14.40;99.90;;;;;;5126010;28;20080;-81
2022/06/19 03:33:45;;;;;;;0.10;0.10;;;14.40;99.90;;;;;;5142716;28;20044;-81
2022/06/19 03:36:12;;;;;;;0.08;0.08;;;14.30;99.90;;;;;;5108816;28;20040;-81
2022/06/19 03:38:38;;;;;;;0.00;0.00;;;14.30;99.90;;;;;;5126153;28;20130;-80
2022/06/19 03:41:05;;;;;;;0.10;0.10;;;14.20;99.90;;;;;;5109259;28;20028;-81
2022/06/19 03:43:33;;;;;;;0.10;0.10;;;14.20;99.90;;;;;;5142950;28;20715;-81
2022/06/19 03:46:02;;;;;;;0.25;0.20;;;14.10;99.90;;;;;;5125934;28;20047;-81
2022/06/19 03:48:28;;;;;;;0.85;0.55;;;14.10;99.90;;;;;;5109665;28;20040;-81
2022/06/19 03:50:55;;;;;;;0.10;0.10;;;14.10;99.90;;;;;;5143232;28;20519;-81
2022/06/19 03:53:21;;;;;;;0.10;0.10;;;14.10;99.90;;;;;;5108650;28;20130;-81
2022/06/19 03:55:49;;;;;;;0.10;0.10;;;14.00;99.90;;;;;;5126299;28;20043;-81
2022/06/19 03:58:15;;;;;;;0.00;0.00;;;14.00;99.90;;;;;;5125872;28;20039;-81
2022/06/19 04:00:42;;;;;;;0.28;0.10;;;14.00;99.90;;;;;;5125829;28;20409;-82
2022/06/19 04:03:09;;;;;;;0.08;0.08;;;14.00;99.90;;;;;;5125602;28;20097;-81
2022/06/19 04:05:36;;;;;;;0.08;0.08;;;14.00;99.90;;;;;;5109248;28;20075;-81
2022/06/19 04:08:03;;;;;;;0.00;0.00;;;14.00;99.90;;;;;;5124620;28;20890;-81
2022/06/19 04:10:30;;;;;;;0.10;0.10;;;14.00;99.90;;;;;;5125397;28;20044;-81
2022/06/19 04:12:57;;;;;;;0.00;0.00;;;14.00;99.90;;;;;;5109113;28;20044;-81
2022/06/19 04:15:24;;;;;;;0.15;0.10;;;14.00;99.90;;;;;;5125551;28;20044;-81
2022/06/19 04:17:50;;;;;;;0.10;0.10;;;14.00;99.90;;;;;;5142479;28;20118;-81
2022/06/19 04:20:17;;;;;;;0.10;0.10;;;14.10;99.90;;;;;;5125533;28;20068;-81
2022/06/19 04:22:44;;;;;;;0.22;0.20;;;14.10;99.90;;;;;;5108894;28;20032;-81
2022/06/19 04:25:14;;;;;;;0.10;0.10;;;14.00;99.90;;;;;;5141916;28;20467;-82
2022/06/19 04:27:43;;;;;;;0.00;0.00;;;14.10;99.90;;;;;;5125715;28;20063;-82
2022/06/19 04:30:10;;;;;;;0.30;0.20;;;14.10;99.90;;;;;;5108724;28;20051;-82
2022/06/19 04:32:37;;;;;;;0.05;0.05;;;14.00;99.90;;;;;;5144539;28;20058;-81
2022/06/19 04:35:04;;;;;;;0.10;0.10;;;13.80;99.90;;;;;;5129700;28;20044;-81
2022/06/19 04:37:31;;;;;;;0.10;0.10;;;13.80;99.90;;;;;;5129633;28;20045;-81
2022/06/19 04:39:57;;;;;;;0.10;0.10;;;13.70;99.90;;;;;;5129994;28;20066;-82
2022/06/19 04:42:24;;;;;;;0.10;0.10;;;13.60;99.90;;;;;;5129244;28;20476;-81
2022/06/19 04:44:51;;;;;;;0.00;0.00;;;13.60;99.90;;;;;;5129578;28;20039;-81
2022/06/19 04:47:17;;;;;;;0.00;0.00;;;13.50;99.90;;;;;;5112814;28;20040;-81
2022/06/19 04:49:44;;;;;;;0.10;0.10;;;13.50;99.90;;;;;;5129488;28;20386;-82
2022/06/19 04:52:11;;;;;;;0.10;0.10;;;13.60;99.90;;;;;;5129045;28;20040;-82
2022/06/19 04:54:39;;;;;;;0.10;0.10;;;13.50;99.90;;;;;;5112399;28;20481;-81
2022/06/19 04:57:06;;;;;;;0.10;0.10;;;13.50;99.90;;;;;;5112205;28;20373;-82
2022/06/19 04:59:33;;;;;;;0.10;0.10;;;13.50;99.90;;;;;;5129363;28;20040;-81
2022/06/19 05:02:00;;;;;;;0.10;0.10;;;13.50;99.90;;;;;;5129030;28;20504;-82
2022/06/19 05:04:26;;;;;;;0.10;0.10;;;13.50;99.90;;;;;;5112358;28;20063;-81
2022/06/19 05:06:53;;;;;;;0.03;0.03;;;13.60;99.90;;;;;;5112279;28;20040;-81
2022/06/19 05:09:20;;;;;;;0.10;0.10;;;13.60;99.90;;;;;;5129238;28;20127;-82
2022/06/19 05:11:46;;;;;;;0.00;0.00;;;13.60;99.90;;;;;;5112185;28;20176;-82
2022/06/19 05:14:13;;;;;;;0.10;0.10;;;13.70;99.90;;;;;;5128479;28;20032;-81
2022/06/19 05:16:40;;;;;;;0.10;0.10;;;13.70;99.90;;;;;;5145926;28;20031;-81
2022/06/19 05:19:07;;;;;;;0.00;0.00;;;13.80;99.90;;;;;;5128871;28;20074;-81
2022/06/19 05:21:34;;;;;;;0.10;0.10;;;13.80;99.90;;;;;;5129218;28;20044;-82
2022/06/19 05:24:00;;;;;;;0.00;0.00;;;13.80;99.90;;;;;;5146157;28;20040;-82
2022/06/19 05:26:30;;;;;;;0.17;0.17;;;13.80;99.90;;;;;;5128841;28;20055;-81
2022/06/19 05:28:58;;;;;;;0.00;0.00;;;13.80;99.90;;;;;;5128908;28;20048;-81
2022/06/19 05:31:26;;;;;;;0.10;0.10;;;13.90;99.90;;;;;;5111445;28;20044;-81
2022/06/19 05:33:54;;;;;;;0.00;0.00;;;14.00;99.90;;;;;;5128334;28;20561;-80
2022/06/19 05:36:22;;;;;;;0.00;0.00;;;14.00;99.90;;;;;;5111606;28;20505;-80
2022/06/19 05:38:50;;;;;;;0.10;0.10;;;14.00;99.90;;;;;;5111620;28;20530;-81
2022/06/19 05:41:17;;;;;;;0.00;0.00;;;14.00;99.90;;;;;;5111557;28;20036;-81
2022/06/19 05:43:47;;;;;;;0.00;0.00;;;14.00;99.90;;;;;;5145004;28;20047;-81
2022/06/19 05:46:16;;;;;;;0.10;0.10;;;14.00;99.90;;;;;;5127719;28;20044;-81
2022/06/19 05:48:43;;;;;;;0.08;0.08;;;14.00;99.90;;;;;;5128529;28;20046;-81
2022/06/19 05:51:13;;;;;;;0.43;0.30;;;14.00;99.90;;;;;;5128167;28;20432;-81
2022/06/19 05:53:43;;;;;;;0.03;0.03;;;14.00;99.90;;;;;;5097058;28;20070;-81
2022/06/19 05:56:10;;;;;;;0.10;0.10;;;14.00;99.90;;;;;;5122377;28;20145;-81
2022/06/19 05:58:38;;;;;;;0.03;0.03;;;14.00;99.90;;;;;;5130322;28;20098;-81
2022/06/19 06:01:05;;;;;;;0.08;0.05;;;13.90;99.90;;;;;;5100033;28;20536;-81
2022/06/19 06:03:32;;;;;;;0.10;0.10;;;13.80;99.90;;;;;;5139272;28;20075;-80
2022/06/19 06:06:05;;;;;;;0.45;0.28;;;13.90;99.90;;;;;;5077754;28;20105;-81
2022/06/19 06:08:35;;;;;;;0.00;0.00;;;13.90;99.90;;;;;;5104975;28;20192;-81
2022/06/19 06:11:01;;;;;;;0.00;0.00;;;13.90;99.90;;;;;;5139088;28;20051;-81
2022/06/19 06:13:31;;;;;;;0.10;0.10;;;13.90;99.90;;;;;;5111160;28;20405;-81
2022/06/19 06:15:59;;;;;;;0.10;0.10;;;13.90;99.90;;;;;;5141713;28;20059;-82
2022/06/19 06:18:27;;;;;;;0.10;0.10;;;13.90;99.90;;;;;;5119747;28;20152;-81
2022/06/19 06:20:59;;;;;;;0.05;0.05;;;13.90;99.90;;;;;;5132838;28;20024;-81
2022/06/19 06:23:27;;;;;;;0.00;0.00;;;14.00;99.90;;;;;;5110698;28;20036;-80
2022/06/19 06:26:22;;;;;;;0.08;0.08;;;14.00;99.90;;;;;;5144506;28;20036;-81
2022/06/19 06:28:50;;;;;;;0.15;0.10;;;14.00;99.90;;;;;;5115464;28;20045;-82
2022/06/19 06:31:18;;;;;;;0.00;0.00;;;14.00;99.90;;;;;;5107471;28;20131;-81
2022/06/19 06:33:45;;;;;;;0.10;0.10;;;13.90;99.90;;;;;;5090277;28;20040;-82
2022/06/19 06:36:12;;;;;;;0.15;0.13;;;13.90;99.90;;;;;;5107128;28;20041;-81
2022/06/19 06:38:39;;;;;;;0.10;0.10;;;13.90;99.90;;;;;;5073656;28;20044;-81
2022/06/19 06:41:08;;;;;;;0.00;0.00;;;13.90;99.90;;;;;;5076964;28;20114;-81
2022/06/19 06:43:36;;;;;;;0.28;0.20;;;13.90;99.90;;;;;;5105949;28;20066;-80
2022/06/19 06:46:10;;;;;;;0.10;0.10;;;13.80;99.90;;;;;;5106802;28;20063;-81
2022/06/19 06:48:37;;;;;;;0.00;0.00;;;13.70;99.90;;;;;;5127769;28;20032;-82
2022/06/19 06:51:05;;;;;;;0.08;0.08;;;13.70;99.90;;;;;;5110402;28;20102;-82
2022/06/19 06:53:32;;;;;;;0.00;0.00;;;13.70;99.90;;;;;;5116122;28;20051;-80
2022/06/19 06:55:59;;;;;;;0.10;0.10;;;13.70;99.90;;;;;;5106008;28;20036;-81
2022/06/19 06:58:26;;;;;;;0.10;0.10;;;13.70;99.90;;;;;;5097567;28;20104;-81
2022/06/19 07:00:54;;;;;;;0.00;0.00;;;13.70;99.90;;;;;;5112371;28;20071;-82
2022/06/19 07:03:21;;;;;;;0.10;0.10;;;13.70;99.90;;;;;;5091387;28;20071;-82
2022/06/19 07:05:48;;;;;;;0.10;0.10;;;13.80;99.90;;;;;;5076191;28;20069;-81
2022/06/19 07:08:15;;;;;;;0.35;0.20;;;13.80;99.90;;;;;;5097243;28;20036;-81
2022/06/19 07:10:41;;;;;;;0.20;0.17;;;13.90;99.90;;;;;;5116082;28;20096;-81
2022/06/19 07:13:09;;;;;;;0.20;0.20;;;13.90;99.90;;;;;;5093251;28;20036;-81
2022/06/19 07:15:36;;;;;;;0.25;0.17;;;14.00;99.90;;;;;;5124259;28;20040;-82
2022/06/19 07:18:03;;;;;;;0.10;0.10;;;13.90;99.90;;;;;;5131705;28;20116;-82
2022/06/19 07:20:29;;;;;;;0.10;0.10;;;13.90;99.90;;;;;;5118196;28;20508;-82
2022/06/19 07:22:56;;;;;;;0.00;0.00;;;13.90;99.90;;;;;;5109739;28;20149;-81
2022/06/19 07:25:23;;;;;;;0.10;0.10;;;14.00;99.90;;;;;;5110027;28;20040;-81
2022/06/19 07:27:49;;;;;;;0.10;0.10;;;13.90;99.90;;;;;;5123981;28;20048;-81
2022/06/19 07:30:20;;;;;;;0.00;0.00;;;14.00;99.90;;;;;;5106138;28;20044;-79
2022/06/19 07:32:47;;;;;;;0.00;0.00;;;14.00;99.90;;;;;;5089434;28;20040;-82
2022/06/19 07:35:14;;;;;;;0.10;0.10;;;14.10;99.90;;;;;;5150068;27;20780;-81
2022/06/19 07:37:41;;;;;;;0.10;0.10;;;14.10;99.90;;;;;;5108813;28;20042;-80
2022/06/19 07:40:09;;;;;;;0.10;0.10;;;14.10;99.90;;;;;;5129964;28;20543;-82
2022/06/19 07:42:35;;;;;;;0.10;0.10;;;14.10;99.90;;;;;;5108802;28;20437;-82
2022/06/19 07:45:02;;;;;;;0.20;0.20;;;14.10;99.90;;;;;;5124992;28;20130;-82
2022/06/19 07:50:16;;;;;;;0.10;0.10;;;14.20;99.90;;;;;;5107336;28;20040;-82
2022/06/19 07:52:49;;;;;;;0.13;0.13;;;14.20;99.90;;;;;;5109172;28;20282;-82
2022/06/19 07:55:18;;;;;;;0.30;0.20;;;14.20;99.90;;;;;;5125650;28;20093;-82
2022/06/19 07:57:45;;;;;;;0.10;0.10;;;14.20;99.90;;;;;;5108183;28;20123;-82
2022/06/19 08:00:16;;;;;;;2.22;0.17;;;14.20;99.90;;;;;;5125475;28;20046;-82
2022/06/19 08:02:46;;;;;;;0.00;0.00;;;14.20;99.90;;;;;;5108874;28;20400;-81
2022/06/19 08:05:13;;;;;;;0.10;0.10;;;14.20;99.90;;;;;;5091794;28;20075;-81
2022/06/19 08:07:40;;;;;;;0.00;0.00;;;14.20;99.90;;;;;;5079179;28;20543;-81
2022/06/19 08:10:11;;;;;;;0.10;0.10;;;14.20;99.90;;;;;;5113126;28;20135;-82
2022/06/19 08:12:39;;;;;;;0.13;0.10;;;14.30;99.90;;;;;;5112433;28;20059;-81
2022/06/19 08:15:07;;;;;;;0.75;0.40;;;14.30;99.90;;;;;;5113084;28;20032;-82
2022/06/19 08:17:34;;;;;;;0.00;0.00;;;14.30;99.90;;;;;;5095834;28;20051;-81
2022/06/19 08:20:01;;;;;;;0.10;0.10;;;14.30;99.90;;;;;;5129755;28;20040;-82
2022/06/19 08:22:28;;;;;;;0.08;0.08;;;14.30;99.90;;;;;;5112497;28;20400;-81
2022/06/19 08:24:54;;;;;;;0.10;0.10;;;14.40;99.90;;;;;;5079798;28;20626;-82
2022/06/19 08:27:21;;;;;;;0.10;0.10;;;14.40;99.90;;;;;;5096212;28;20075;-82
2022/06/19 08:29:48;;;;;;;0.10;0.10;;;14.40;99.90;;;;;;5095815;28;20044;-82
2022/06/19 08:32:14;;;;;;;0.10;0.10;;;14.40;99.90;;;;;;5110801;28;20507;-81
2022/06/19 08:34:41;;;;;;;0.00;0.00;;;14.40;99.90;;;;;;5128547;28;20052;-82
2022/06/19 08:37:10;;;;;;;0.10;0.10;;;14.40;99.90;;;;;;5079228;28;20043;-82
2022/06/19 08:39:37;;;;;;;0.10;0.10;;;14.50;99.90;;;;;;5091718;28;20118;-81
2022/06/19 08:42:25;;;;;;;0.10;0.10;;;14.50;99.90;;;;;;5112338;28;20075;-81
2022/06/19 08:45:13;;;;;;;0.20;0.10;;;14.50;99.90;;;;;;5111937;28;20566;-81
2022/06/19 08:48:12;;;;;;;0.10;0.10;;;14.50;99.90;;;;;;5112330;28;20080;-80
2022/06/19 08:50:47;;;;;;;0.10;0.10;;;14.50;99.90;;;;;;5112107;28;20043;-82
2022/06/19 08:53:54;;;;;;;0.35;0.30;;;14.60;99.90;;;;;;5146323;28;20039;-81
2022/06/19 08:56:30;;;;;;;0.20;0.10;;;14.70;99.90;;;;;;5079879;28;20052;-81
2022/06/19 08:59:12;;;;;;;0.00;0.00;;;14.80;99.90;;;;;;5112510;28;20040;-81
2022/06/19 09:02:01;;;;;;;0.20;0.20;;;14.90;99.90;;;;;;5142546;28;20040;-81
2022/06/19 09:08:26;;;;;;;0.08;0.08;;;14.90;99.90;;;;;;5128547;28;20055;-81
2022/06/19 09:10:59;;;;;;;0.10;0.10;;;15.00;99.90;;;;;;5101564;28;20052;-81
2022/06/19 09:13:53;;;;;;;0.10;0.10;;;15.00;99.90;;;;;;5111970;28;20036;-80
2022/06/19 09:16:37;;;;;;;0.30;0.30;;;15.00;99.90;;;;;;5129090;28;20039;-81
2022/06/19 09:19:18;;;;;;;0.10;0.10;;;15.00;99.90;;;;;;5110700;28;20036;-81
2022/06/19 09:22:15;;;;;;;0.10;0.10;;;15.00;99.90;;;;;;5111517;28;20036;-81
2022/06/19 09:24:42;;;;;;;0.10;0.10;;;14.90;99.90;;;;;;5128414;28;20124;-81
2022/06/19 09:27:11;;;;;;;0.10;0.10;;;14.90;99.90;;;;;;5111108;28;20074;-82
2022/06/19 09:30:10;;;;;;;0.00;0.00;;;14.90;99.90;;;;;;5111565;28;20047;-80
2022/06/19 09:32:46;;;;;;;0.10;0.10;;;14.80;99.90;;;;;;5111530;28;20044;-81
2022/06/19 09:35:30;;;;;;;0.08;0.08;;;14.80;99.90;;;;;;5127584;28;20056;-81
2022/06/19 09:38:20;;;;;;;0.10;0.10;;;14.80;99.90;;;;;;5107001;28;20039;-81
2022/06/19 09:41:01;;;;;;;0.10;0.10;;;14.80;99.90;;;;;;5110768;28;20046;-82
2022/06/19 09:43:35;;;;;;;0.10;0.10;;;14.80;99.90;;;;;;5111340;28;20043;-81
2022/06/19 09:46:05;;;;;;;0.10;0.10;;;14.90;99.90;;;;;;5111474;28;20042;-80
2022/06/19 09:48:38;;;;;;;0.50;0.20;;;15.00;99.90;;;;;;5125640;28;20032;-80
2022/06/19 09:51:11;;;;;;;0.10;0.10;;;15.10;99.90;;;;;;5109809;28;20040;-80
2022/06/19 09:53:47;;;;;;;0.20;0.13;;;15.10;99.90;;;;;;5106825;28;20036;-80
2022/06/19 09:56:45;;;;;;;0.05;0.00;;;15.20;99.90;;;;;;5127549;28;20047;-81
2022/06/19 09:59:37;;;;;;;0.10;0.10;;;15.20;99.90;;;;;;5127179;28;20092;-81
2022/06/19 10:02:15;;;;;;;0.25;0.20;;;15.20;99.90;;;;;;5110404;28;20528;-81
2022/06/19 10:05:09;;;;;;;0.15;0.15;;;15.20;99.90;;;;;;5143919;28;20408;-80
2022/06/19 10:07:41;;;;;;;0.00;0.00;;;15.20;99.90;;;;;;5108874;28;20084;-81
2022/06/19 10:10:14;;;;;;;0.10;0.10;;;15.10;99.90;;;;;;5109404;28;20036;-80
2022/06/19 10:12:46;;;;;;;0.03;0.03;;;15.20;99.90;;;;;;5141872;28;20065;-80
2022/06/19 10:15:17;;;;;;;0.10;0.10;;;15.10;99.90;;;;;;5110403;28;20046;-80
2022/06/19 10:18:17;;;;;;;0.00;0.00;;;15.20;99.90;;;;;;5126636;28;20066;-80
2022/06/19 10:21:05;;;;;;;0.10;0.10;;;15.10;99.90;;;;;;5114577;28;20432;-80
2022/06/19 10:23:41;;;;;;;0.20;0.20;;;15.10;99.90;;;;;;5118627;28;20090;-80
2022/06/19 10:26:26;;;;;;;0.30;0.20;;;15.20;99.90;;;;;;5134804;28;20032;-80
2022/06/19 10:29:06;;;;;;;0.00;0.00;;;15.20;99.90;;;;;;5121435;28;20039;-80
2022/06/19 10:31:49;;;;;;;0.00;0.00;;;15.30;99.90;;;;;;5101030;28;20039;-80
2022/06/19 10:34:46;;;;;;;0.00;0.00;;;15.40;99.90;;;;;;5123062;28;20501;-80
2022/06/19 10:37:31;;;;;;;0.10;0.10;;;15.40;99.90;;;;;;5119349;28;20441;-81
2022/06/19 10:40:17;;;;;;;0.00;0.00;;;15.60;99.90;;;;;;5099314;28;20119;-80
2022/06/19 10:42:50;;;;;;;0.00;0.00;;;15.70;99.90;;;;;;5131355;28;20066;-81
2022/06/19 10:45:39;;;;;;;0.00;0.00;;;15.70;99.90;;;;;;5119417;28;20485;-81
2022/06/19 10:48:27;;;;;;;0.00;0.00;;;15.60;99.90;;;;;;5089713;28;20477;-81
2022/06/19 10:51:11;;;;;;;0.05;0.05;;;15.60;99.90;;;;;;5089684;28;20139;-80
2022/06/19 10:53:46;;;;;;;0.10;0.10;;;15.60;99.90;;;;;;5099112;28;20044;-81
2022/06/19 10:56:28;;;;;;;;;;;15.60;99.90;;;;;;5110078;28;20456;-81
2022/06/19 10:58:55;;;;;;;0.10;0.10;;;15.60;99.90;;;;;;5109513;28;19942;-80
2022/06/19 11:04:23;;;;;;;0.10;0.10;;;15.60;99.90;;;;;;5126719;28;20055;-80
2022/06/19 11:07:06;;;;;;;0.75;0.30;;;15.70;99.90;;;;;;5109415;28;20524;-80
2022/06/19 11:09:40;;;;;;;0.38;0.30;;;15.70;99.90;;;;;;5097437;28;20386;-80
2022/06/19 11:12:33;;;;;;;0.05;0.05;;;15.80;99.90;;;;;;5094790;28;20044;-80
2022/06/19 11:15:03;;;;;;;0.10;0.10;;;15.80;99.90;;;;;;5116359;28;20056;-80
2022/06/19 11:17:32;;;;;;;0.00;0.00;;;15.80;99.90;;;;;;5103146;28;20514;-80
2022/06/19 11:20:17;;;;;;;0.10;0.10;;;15.80;99.90;;;;;;5109319;28;20047;-81
2022/06/19 11:22:49;;;;;;;0.10;0.10;;;15.80;99.90;;;;;;5135180;28;20046;-81
2022/06/19 11:25:18;;;;;;;0.00;0.00;;;15.80;99.90;;;;;;5113993;28;20782;-81
2022/06/19 11:27:56;;;;;;;0.10;0.10;;;15.70;99.90;;;;;;5156324;27;20040;-81
2022/06/19 11:30:29;;;;;;;0.20;0.10;;;15.70;99.90;;;;;;5099301;28;20044;-81
2022/06/19 11:32:56;;;;;;;0.10;0.10;;;15.60;99.90;;;;;;5138619;28;20481;-81
2022/06/19 11:35:24;;;;;;;0.10;0.10;;;15.60;99.90;;;;;;5126076;28;20127;-80
2022/06/19 11:37:55;;;;;;;0.10;0.10;;;15.60;99.90;;;;;;5109410;28;20035;-80
2022/06/19 11:40:49;;;;;;;0.00;0.00;;;15.70;99.90;;;;;;5109555;28;20039;-80
2022/06/19 11:43:30;;;;;;;0.13;0.13;;;15.70;99.90;;;;;;5108500;28;20141;-81
2022/06/19 11:46:13;;;;;;;0.17;0.10;;;15.60;99.90;;;;;;5109007;28;20071;-81
2022/06/19 11:48:40;;;;;;;0.00;0.00;;;15.60;99.90;;;;;;5126546;28;20051;-81
2022/06/19 11:51:21;;;;;;;0.10;0.10;;;15.50;99.90;;;;;;5109386;28;20036;-81
2022/06/19 11:53:57;;;;;;;0.00;0.00;;;15.50;99.90;;;;;;5126461;28;20036;-80
2022/06/19 11:56:34;;;;;;;0.47;0.28;;;15.50;99.90;;;;;;5109658;28;20512;-81
2022/06/19 11:59:27;;;;;;;1.38;0.10;;;15.50;99.90;;;;;;5105707;28;20040;-80
2022/06/19 12:01:54;;;;;;;0.10;0.10;;;15.50;99.90;;;;;;5108981;28;20040;-81
2022/06/19 12:04:34;;;;;;;0.38;0.20;;;15.40;99.90;;;;;;5105382;28;20051;-81
2022/06/19 12:07:13;;;;;;;0.00;0.00;;;15.40;99.90;;;;;;5108893;28;20068;-81
2022/06/19 12:10:03;;;;;;;0.52;0.20;;;15.40;99.90;;;;;;5107304;28;20177;-81
2022/06/19 12:12:33;;;;;;;0.08;0.08;;;15.40;99.90;;;;;;5109264;28;20071;-81
2022/06/19 12:14:59;;;;;;;0.08;0.08;;;15.30;99.90;;;;;;5108690;28;20127;-81
2022/06/19 12:17:26;;;;;;;0.10;0.10;;;15.30;99.90;;;;;;5124031;28;20556;-81
2022/06/19 12:20:05;;;;;;;0.10;0.10;;;15.30;99.90;;;;;;5103333;28;20035;-81
2022/06/19 12:22:46;;;;;;;0.10;0.10;;;15.20;99.90;;;;;;5109016;28;20068;-80
2022/06/19 12:25:39;;;;;;;0.10;0.10;;;15.10;99.90;;;;;;5101598;28;20390;-81
2022/06/19 12:28:41;;;;;;;0.10;0.10;;;15.00;99.90;;;;;;5141752;28;20051;-81
2022/06/19 12:31:11;;;;;;;0.00;0.00;;;15.00;99.90;;;;;;5097215;28;20040;-80
2022/06/19 12:33:45;;;;;;;0.05;0.03;;;15.00;99.90;;;;;;5108428;28;20095;-81
2022/06/19 12:36:17;;;;;;;0.08;0.08;;;14.90;99.90;;;;;;5108949;28;20044;-80
2022/06/19 12:38:46;;;;;;;0.10;0.00;;;15.00;99.90;;;;;;5125273;28;20040;-80
2022/06/19 12:41:36;;;;;;;0.00;0.00;;;14.90;99.90;;;;;;5127428;28;20039;-81
2022/06/19 12:44:39;;;;;;;0.00;0.00;;;14.90;99.90;;;;;;5108513;28;20043;-80
2022/06/19 12:47:28;;;;;;;1.65;0.47;;;15.00;99.90;;;;;;5096302;28;20098;-81
2022/06/19 12:50:26;;;;;;;0.00;0.00;;;15.00;99.90;;;;;;5100655;28;20044;-81
2022/06/19 12:53:08;;;;;;;0.00;0.00;;;15.00;99.90;;;;;;5138850;28;20717;-81
2022/06/19 12:55:57;;;;;;;0.03;0.03;;;15.00;99.90;;;;;;5109985;28;20032;-80
2022/06/19 12:58:55;;;;;;;0.10;0.10;;;15.10;99.90;;;;;;5129062;28;20043;-79
2022/06/19 13:01:33;;;;;;;0.10;0.10;;;15.20;99.90;;;;;;5128162;28;20519;-81
2022/06/19 13:04:09;;;;;;;0.10;0.10;;;15.40;99.90;;;;;;5143226;28;20137;-79
2022/06/19 13:06:44;;;;;;;;;;;15.50;99.90;;;;;;5125724;28;20051;-80
2022/06/19 13:09:52;;;;;;;0.00;0.00;;;15.50;99.90;;;;;;5118552;28;20288;-79
2022/06/19 13:12:44;;;;;;;0.00;0.00;;;15.40;99.90;;;;;;5111970;28;20040;-80
2022/06/19 13:15:20;;;;;;;0.00;0.00;;;15.40;99.90;;;;;;5111080;28;20097;-80
2022/06/19 13:18:03;;;;;;;0.00;0.00;;;15.40;99.90;;;;;;5111460;28;20485;-79
2022/06/19 13:20:56;;;;;;;0.05;0.05;;;15.40;99.90;;;;;;5111203;28;20036;-80
2022/06/19 13:23:34;;;;;;;0.00;0.00;;;15.40;99.90;;;;;;5125233;28;20044;-80
2022/06/19 13:29:22;;;;;;;0.00;0.00;;;15.30;99.90;;;;;;5162043;27;20257;-80